Time;durP1;ratioP1;P1;durP2;ratioP2;P2;SDS_P1;SDS_P2;PMS_P1;PMS_P2;Temp;Humidity;BMP_temperature;BMP_pressure;BME280_temperature;BME280_humidity;BME280_pressure;Samples;Min_cycle;Max_cycle;Signal;HPM_P1;HPM_P2
2024/01/04 00:04:27;;;;;;;3.60;1.80;;;;;;;10.91;61.60;96964.73;232358;204;136917;-56
2024/01/04 00:09:30;;;;;;;3.70;1.80;;;;;;;10.90;61.77;96964.59;232214;200;151546;-54
2024/01/04 00:14:33;;;;;;;3.00;1.50;;;;;;;10.88;62.15;96963.55;232370;201;137268;-53
2024/01/04 00:19:36;;;;;;;3.90;1.40;;;;;;;10.85;62.29;96964.02;232486;204;137433;-55
2024/01/04 00:24:39;;;;;;;2.40;1.30;;;;;;;10.82;62.69;96959.15;232346;201;152332;-51
2024/01/04 00:29:43;;;;;;;4.00;1.30;;;;;;;10.78;62.85;96958.48;232001;201;136777;-55
2024/01/04 00:34:46;;;;;;;2.00;1.40;;;;;;;10.71;63.03;96954.78;232415;200;136912;-54
2024/01/04 00:39:49;;;;;;;2.40;1.10;;;;;;;10.65;62.91;96952.09;232026;200;152332;-53
2024/01/04 00:44:52;;;;;;;2.20;1.10;;;;;;;10.61;62.96;96949.54;232412;196;136927;-53
2024/01/04 00:49:56;;;;;;;1.80;0.90;;;;;;;10.53;62.97;96942.65;232326;201;137640;-54
2024/01/04 00:54:59;;;;;;;2.40;1.10;;;;;;;10.48;63.12;96941.31;232436;197;152229;-54
2024/01/04 01:00:03;;;;;;;1.40;1.00;;;;;;;10.42;63.25;96933.61;232308;203;136448;-53
2024/01/04 01:05:06;;;;;;;1.60;1.00;;;;;;;10.36;63.39;96922.92;231841;200;158006;-56
2024/01/04 01:10:10;;;;;;;1.80;1.00;;;;;;;10.36;63.54;96923.32;232295;201;151536;-56
2024/01/04 01:15:13;;;;;;;1.70;1.10;;;;;;;10.31;63.52;96917.58;232107;204;137192;-55
2024/01/04 01:20:16;;;;;;;2.50;1.10;;;;;;;10.27;63.70;96917.59;232293;196;136928;-54
2024/01/04 01:25:19;;;;;;;2.30;1.20;;;;;;;10.24;63.80;96921.87;232538;203;151346;-56
2024/01/04 01:30:23;;;;;;;2.00;1.20;;;;;;;10.17;63.97;96925.09;232259;204;140386;-54
2024/01/04 01:35:26;;;;;;;3.00;1.20;;;;;;;10.16;64.14;96926.02;232127;199;137388;-52
2024/01/04 01:40:29;;;;;;;3.20;1.20;;;;;;;10.13;64.34;96927.42;232354;204;152467;-54
2024/01/04 01:45:32;;;;;;;1.70;1.20;;;;;;;10.11;64.42;96931.35;232227;197;137246;-53
2024/01/04 01:50:36;;;;;;;1.60;1.00;;;;;;;10.11;64.40;96926.73;232375;203;137074;-56
2024/01/04 01:55:39;;;;;;;2.40;1.20;;;;;;;10.09;64.47;96920.56;232195;204;152167;-55
2024/01/04 02:00:43;;;;;;;1.80;1.10;;;;;;;10.14;64.58;96918.81;232394;201;136526;-54
2024/01/04 02:05:46;;;;;;;3.00;1.20;;;;;;;10.21;64.37;96924.75;231635;204;137441;-54
2024/01/04 02:10:50;;;;;;;2.40;1.10;;;;;;;10.24;64.36;96922.73;232206;200;151699;-55
2024/01/04 02:15:53;;;;;;;2.00;1.10;;;;;;;10.30;64.30;96923.88;232321;204;137037;-52
2024/01/04 02:20:56;;;;;;;2.60;1.30;;;;;;;10.37;64.08;96930.89;232198;197;136825;-53
2024/01/04 02:26:00;;;;;;;2.40;1.00;;;;;;;10.35;63.98;96931.75;232277;203;151680;-53
2024/01/04 02:31:04;;;;;;;2.90;1.20;;;;;;;10.35;63.97;96933.35;232381;204;140762;-51
2024/01/04 02:36:07;;;;;;;1.80;1.10;;;;;;;10.33;63.91;96942.42;232306;204;138144;-53
2024/01/04 02:41:10;;;;;;;2.90;1.10;;;;;;;10.28;64.05;96948.02;232315;204;151326;-56
2024/01/04 02:46:13;;;;;;;1.80;1.10;;;;;;;10.21;64.72;96941.73;232252;200;137218;-53
2024/01/04 02:51:16;;;;;;;5.00;1.10;;;;;;;10.16;65.52;96943.45;232356;200;137514;-55
2024/01/04 02:56:19;;;;;;;2.30;1.00;;;;;;;10.11;66.29;96945.02;232331;197;151184;-54
2024/01/04 03:01:23;;;;;;;1.70;0.90;;;;;;;10.06;67.13;96942.79;232485;203;137001;-55
2024/01/04 03:06:29;;;;;;;2.20;0.70;;;;;;;10.05;67.99;96939.89;232285;204;143076;-55
2024/01/04 03:11:33;;;;;;;2.20;0.60;;;;;;;10.02;68.44;96941.58;232162;204;151309;-53
2024/01/04 03:16:36;;;;;;;0.80;0.60;;;;;;;9.98;69.17;96938.75;232135;197;137736;-55
2024/01/04 03:21:39;;;;;;;2.00;0.70;;;;;;;9.89;70.07;96936.23;232237;200;140253;-55
2024/01/04 03:26:42;;;;;;;1.50;0.50;;;;;;;9.81;70.56;96927.42;232420;201;151995;-55
2024/01/04 03:31:46;;;;;;;0.80;0.50;;;;;;;9.76;70.82;96919.57;232399;204;137104;-56
2024/01/04 03:36:49;;;;;;;3.10;0.80;;;;;;;9.68;71.37;96920.26;231979;201;136820;-54
2024/01/04 03:41:52;;;;;;;0.90;0.50;;;;;;;9.63;71.71;96916.85;232266;204;151518;-57
2024/01/04 03:46:55;;;;;;;2.50;0.70;;;;;;;9.66;71.92;96910.58;232040;204;137647;-54
2024/01/04 03:51:58;;;;;;;2.50;0.80;;;;;;;9.74;71.94;96908.39;232359;204;138860;-55
2024/01/04 03:57:03;;;;;;;120.80;79.40;;;;;;;9.81;72.20;96895.61;232288;204;152383;-51
2024/01/04 04:02:06;;;;;;;5.20;2.80;;;;;;;9.91;72.11;96886.94;232380;204;137083;-55
2024/01/04 04:07:10;;;;;;;260.70;189.10;;;;;;;9.93;72.11;96888.23;232357;204;137360;-54
2024/01/04 04:12:13;;;;;;;11.60;6.40;;;;;;;9.91;72.30;96889.29;232212;203;152810;-55
2024/01/04 04:17:24;;;;;;;3.70;2.10;;;;;;;9.89;72.32;96882.20;232255;201;137974;-55
2024/01/04 04:22:27;;;;;;;1.70;0.70;;;;;;;9.85;72.68;96881.52;232357;197;136619;-55
2024/01/04 04:27:30;;;;;;;2.00;0.90;;;;;;;9.87;72.77;96881.17;232321;204;151152;-55
2024/01/04 04:32:34;;;;;;;4.10;1.00;;;;;;;9.89;72.52;96879.88;232248;204;140276;-55
2024/01/04 04:37:37;;;;;;;2.00;1.00;;;;;;;9.95;72.18;96878.58;232410;200;136138;-55
2024/01/04 04:42:40;;;;;;;2.10;1.00;;;;;;;9.97;72.01;96879.68;231636;197;152372;-52
2024/01/04 04:47:44;;;;;;;1.40;0.70;;;;;;;9.88;71.86;96886.39;232337;203;136732;-55
2024/01/04 04:52:47;;;;;;;1.20;0.70;;;;;;;9.77;72.12;96888.84;232404;203;137740;-56
2024/01/04 04:57:51;;;;;;;5.40;3.60;;;;;;;9.71;72.69;96884.44;232362;204;151945;-56
2024/01/04 05:02:54;;;;;;;1.70;0.70;;;;;;;9.67;72.79;96878.80;232427;204;270471;-52
2024/01/04 05:07:57;;;;;;;0.90;0.70;;;;;;;9.70;72.79;96878.27;232281;204;137235;-55
2024/01/04 05:13:02;;;;;;;1.70;0.60;;;;;;;9.69;72.87;96878.44;232225;204;152142;-52
2024/01/04 05:18:08;;;;;;;1.90;0.70;;;;;;;9.66;72.90;96884.52;232162;201;137447;-56
2024/01/04 05:23:12;;;;;;;1.20;0.80;;;;;;;9.62;73.14;96885.06;232317;204;137195;-53
2024/01/04 05:28:15;;;;;;;1.80;0.90;;;;;;;9.59;73.31;96883.62;232395;204;151385;-55
2024/01/04 05:33:18;;;;;;;2.80;0.90;;;;;;;9.58;73.46;96889.86;232337;203;136244;-56
2024/01/04 05:38:22;;;;;;;1.80;0.80;;;;;;;9.56;73.56;96890.91;232244;196;137226;-56
2024/01/04 05:43:27;;;;;;;2.10;0.70;;;;;;;9.60;73.62;96900.67;232094;201;152416;-56
2024/01/04 05:48:31;;;;;;;1.40;0.90;;;;;;;9.71;73.37;96907.98;232268;200;136495;-52
2024/01/04 05:53:36;;;;;;;1.80;0.70;;;;;;;9.72;73.12;96910.04;232354;201;137614;-54
2024/01/04 05:58:39;;;;;;;1.60;0.90;;;;;;;9.64;73.11;96917.86;232421;204;152045;-52
2024/01/04 06:03:42;;;;;;;0.90;0.70;;;;;;;9.62;73.27;96928.09;232493;204;137408;-57
2024/01/04 06:08:46;;;;;;;1.70;0.90;;;;;;;9.63;73.31;96934.70;232336;204;137804;-56
2024/01/04 06:13:50;;;;;;;1.60;0.80;;;;;;;9.65;73.33;96944.27;232282;204;151328;-56
2024/01/04 06:18:54;;;;;;;1.60;0.80;;;;;;;9.62;73.30;96955.15;232031;204;136842;-50
2024/01/04 06:23:58;;;;;;;2.80;0.90;;;;;;;9.61;73.26;96967.10;232467;203;138070;-55
2024/01/04 06:29:01;;;;;;;2.00;0.80;;;;;;;9.56;73.52;96973.60;232259;197;151712;-56
2024/01/04 06:34:05;;;;;;;2.50;0.80;;;;;;;9.47;73.75;96987.20;232439;200;137113;-56
2024/01/04 06:39:08;;;;;;;2.30;0.80;;;;;;;9.44;73.99;96993.69;232423;200;138241;-56
2024/01/04 06:44:12;;;;;;;1.40;0.60;;;;;;;9.43;73.75;97000.81;232405;204;151402;-56
2024/01/04 06:49:15;;;;;;;0.70;0.60;;;;;;;9.41;73.03;97005.27;232317;204;137553;-54
2024/01/04 06:54:18;;;;;;;0.50;0.50;;;;;;;9.28;72.66;97000.90;232289;201;137283;-57
2024/01/04 06:59:22;;;;;;;2.00;0.50;;;;;;;9.08;72.75;96996.71;232371;200;152962;-55
2024/01/04 07:04:25;;;;;;;2.00;0.70;;;;;;;8.98;72.99;96995.62;232363;204;137245;-52
2024/01/04 07:09:28;;;;;;;3.00;0.80;;;;;;;8.99;73.44;96996.40;232440;196;139509;-53
2024/01/04 07:14:32;;;;;;;1.40;0.80;;;;;;;9.07;73.35;96994.02;232391;203;151590;-55
2024/01/04 07:19:35;;;;;;;1.70;0.90;;;;;;;9.10;73.36;96998.80;232487;200;136544;-56
2024/01/04 07:24:38;;;;;;;3.00;0.80;;;;;;;9.09;73.45;96999.30;231807;200;137213;-55
2024/01/04 07:29:42;;;;;;;0.70;0.60;;;;;;;9.07;73.44;97000.52;232383;204;151510;-51
2024/01/04 07:34:46;;;;;;;1.40;0.70;;;;;;;9.07;73.75;97006.84;232367;200;137084;-56
2024/01/04 07:40:03;;;;;;;3.70;1.20;;;;;;;9.09;73.93;97005.60;232335;204;137838;-54
2024/01/04 07:45:07;;;;;;;2.20;1.10;;;;;;;9.12;74.28;97000.27;232301;204;152307;-54
2024/01/04 07:50:12;;;;;;;3.40;1.40;;;;;;;9.25;74.32;96994.45;232055;200;138058;-52
2024/01/04 07:55:15;;;;;;;1.60;1.00;;;;;;;9.42;74.20;96989.96;232513;201;136715;-54
2024/01/04 08:00:19;;;;;;;1.30;1.00;;;;;;;9.48;74.15;96989.58;232329;204;151500;-55
2024/01/04 08:05:22;;;;;;;3.00;1.40;;;;;;;9.51;74.22;96990.17;232294;204;138267;-53
2024/01/04 08:10:26;;;;;;;7.10;4.40;;;;;;;9.59;74.56;96992.77;232384;197;136878;-53
2024/01/04 08:15:33;;;;;;;3.60;1.50;;;;;;;9.63;74.30;96995.31;231948;203;151593;-55
2024/01/04 08:20:36;;;;;;;2.50;1.40;;;;;;;9.66;74.38;96994.48;232278;200;137101;-55
2024/01/04 08:25:40;;;;;;;4.10;1.50;;;;;;;9.73;74.38;97000.23;232508;196;137832;-55
2024/01/04 08:30:43;;;;;;;4.90;1.70;;;;;;;9.80;74.43;97005.29;232367;204;153109;-54
2024/01/04 08:35:46;;;;;;;3.70;1.80;;;;;;;9.88;74.32;97003.95;232408;199;137765;-55
2024/01/04 08:40:50;;;;;;;11.60;6.80;;;;;;;9.94;74.36;97010.88;232435;204;137691;-55
2024/01/04 08:45:53;;;;;;;4.90;2.30;;;;;;;9.94;74.06;97018.26;232319;204;151277;-54
2024/01/04 08:50:56;;;;;;;3.30;2.00;;;;;;;9.94;73.95;97026.33;232180;197;137625;-56
2024/01/04 08:56:08;;;;;;;3.90;2.50;;;;;;;9.94;73.64;97035.15;232328;204;137544;-56
2024/01/04 09:01:12;;;;;;;2.60;1.80;;;;;;;10.00;73.75;97029.45;232411;204;151858;-55
2024/01/04 09:06:16;;;;;;;3.00;1.80;;;;;;;10.07;73.51;97029.33;232191;200;136533;-54
2024/01/04 09:11:20;;;;;;;6.90;2.50;;;;;;;10.16;73.39;97025.43;232390;203;136996;-56
2024/01/04 09:16:23;;;;;;;3.80;1.80;;;;;;;10.26;73.07;97032.21;232242;204;151211;-54
2024/01/04 09:21:26;;;;;;;3.80;1.70;;;;;;;10.29;72.62;97024.70;232090;203;136839;-56
2024/01/04 09:26:29;;;;;;;4.90;1.60;;;;;;;10.35;72.31;97024.27;232260;204;137261;-54
2024/01/04 09:31:33;;;;;;;3.80;1.80;;;;;;;10.46;71.50;97023.45;232323;197;152074;-54
2024/01/04 09:36:36;;;;;;;2.40;1.40;;;;;;;10.56;70.62;97028.29;232364;201;137934;-57
2024/01/04 09:41:44;;;;;;;2.10;1.20;;;;;;;10.63;69.79;97033.86;232321;203;136756;-53
2024/01/04 09:46:49;;;;;;;1.80;1.20;;;;;;;10.63;69.02;97024.82;232264;203;151500;-55
2024/01/04 09:51:52;;;;;;;2.10;1.30;;;;;;;10.61;68.89;97019.54;232214;201;138520;-53
2024/01/04 09:57:00;;;;;;;1.70;1.00;;;;;;;10.69;68.72;97021.41;232254;197;137672;-52
2024/01/04 10:02:06;;;;;;;2.00;1.10;;;;;;;10.78;68.40;97018.06;232036;203;152109;-52
2024/01/04 10:07:15;;;;;;;2.10;1.00;;;;;;;10.80;67.90;97016.35;232375;198;137924;-55
2024/01/04 10:12:18;;;;;;;2.60;1.30;;;;;;;10.88;67.34;97015.89;232218;200;138675;-56
2024/01/04 10:17:22;;;;;;;2.80;1.10;;;;;;;10.92;66.49;97017.80;232109;198;152140;-53
2024/01/04 10:22:25;;;;;;;1.80;1.10;;;;;;;10.87;66.72;97013.20;232178;204;136756;-56
2024/01/04 10:27:28;;;;;;;1.90;1.30;;;;;;;10.94;66.17;97018.36;232309;200;139967;-56
2024/01/04 10:32:32;;;;;;;2.00;1.10;;;;;;;10.93;65.29;97018.65;232354;200;153230;-56
2024/01/04 10:37:35;;;;;;;3.20;1.10;;;;;;;10.89;64.68;97020.75;232139;197;137867;-56
2024/01/04 10:42:38;;;;;;;1.70;1.00;;;;;;;10.83;64.22;97035.66;232235;203;137821;-54
2024/01/04 10:47:47;;;;;;;2.00;0.80;;;;;;;10.73;63.91;97033.86;232235;204;151101;-55
2024/01/04 10:52:54;;;;;;;2.30;0.90;;;;;;;10.66;63.71;97040.88;232161;203;136962;-55
2024/01/04 10:58:00;;;;;;;1.10;0.60;;;;;;;10.59;64.10;97043.14;232330;204;136782;-55
2024/01/04 11:03:06;;;;;;;1.30;0.50;;;;;;;10.42;64.55;97043.80;231866;203;152246;-53
2024/01/04 11:08:12;;;;;;;1.50;0.70;;;;;;;10.33;65.85;97037.81;232317;204;137724;-53
2024/01/04 11:13:15;;;;;;;1.90;0.70;;;;;;;10.30;66.90;97031.31;232428;204;138361;-53
2024/01/04 11:18:32;;;;;;;2.60;1.00;;;;;;;10.35;67.54;97028.84;232368;204;152652;-54
2024/01/04 11:23:56;;;;;;;1.40;1.10;;;;;;;10.38;67.97;97032.48;232225;200;138031;-55
2024/01/04 11:29:06;;;;;;;1.60;0.90;;;;;;;10.39;68.20;97034.20;232263;201;137643;-54
2024/01/04 11:34:11;;;;;;;1.50;0.90;;;;;;;10.43;68.39;97034.50;232352;201;151497;-52
2024/01/04 11:39:25;;;;;;;4.00;1.50;;;;;;;10.38;68.69;97029.84;232381;196;136937;-55
2024/01/04 11:44:35;;;;;;;3.30;1.30;;;;;;;10.37;68.85;97035.11;232181;201;137102;-61
2024/01/04 11:49:47;;;;;;;4.20;1.40;;;;;;;10.30;68.81;97036.23;232306;200;151567;-51
2024/01/04 11:55:01;;;;;;;2.20;1.40;;;;;;;10.28;68.95;97040.20;232321;196;138771;-52
2024/01/04 12:00:15;;;;;;;3.40;1.20;;;;;;;10.24;68.56;97043.02;232244;201;140393;-56
2024/01/04 12:05:19;;;;;;;3.60;1.20;;;;;;;10.21;68.72;97049.27;232346;199;151382;-53
2024/01/04 12:10:23;;;;;;;2.30;1.10;;;;;;;10.10;68.68;97045.66;232203;204;137954;-53
2024/01/04 12:15:27;;;;;;;1.90;1.10;;;;;;;10.03;69.04;97044.61;232218;201;137418;-53
2024/01/04 12:20:30;;;;;;;2.80;1.10;;;;;;;10.06;69.21;97050.67;232021;200;151407;-49
2024/01/04 12:25:35;;;;;;;2.70;1.20;;;;;;;10.04;69.22;97056.77;232387;200;137367;-54
2024/01/04 12:30:38;;;;;;;2.10;1.40;;;;;;;10.03;69.04;97058.93;232169;198;137931;-52
2024/01/04 12:35:42;;;;;;;1.90;1.20;;;;;;;10.05;69.19;97059.80;232236;204;151457;-50
2024/01/04 12:40:48;;;;;;;2.00;1.30;;;;;;;10.10;68.92;97066.59;232464;196;137455;-52
2024/01/04 12:46:04;;;;;;;2.60;1.50;;;;;;;10.13;68.56;97075.70;232312;200;136795;-52
2024/01/04 12:51:08;;;;;;;4.60;1.60;;;;;;;10.10;68.57;97078.65;232085;204;151553;-52
2024/01/04 12:56:14;;;;;;;3.70;1.70;;;;;;;10.04;69.21;97090.20;231991;204;138020;-54
2024/01/04 13:01:17;;;;;;;5.80;2.80;;;;;;;10.03;70.13;97134.23;232403;204;138269;-51
2024/01/04 13:06:22;;;;;;;3.00;1.00;;;;;;;9.86;70.72;97155.58;232234;203;152694;-54
2024/01/04 13:11:26;;;;;;;2.70;1.10;;;;;;;9.67;69.78;97140.64;232276;204;138122;-50
2024/01/04 13:16:29;;;;;;;1.60;1.00;;;;;;;9.60;69.97;97143.41;232333;200;137549;-52
2024/01/04 13:21:32;;;;;;;1.90;1.00;;;;;;;9.50;69.69;97126.04;232022;197;152175;-50
2024/01/04 13:26:36;;;;;;;1.70;0.90;;;;;;;9.34;69.65;97130.31;232107;204;137620;-46
2024/01/04 13:31:42;;;;;;;0.90;0.80;;;;;;;9.26;69.77;97145.81;232425;203;137371;-57
2024/01/04 13:36:45;;;;;;;4.00;1.40;;;;;;;9.22;69.75;97154.79;232105;200;151337;-46
2024/01/04 13:41:48;;;;;;;2.20;1.20;;;;;;;9.27;69.81;97169.48;232066;204;137908;-48
2024/01/04 13:46:53;;;;;;;3.20;1.20;;;;;;;9.28;69.50;97182.65;232260;201;137402;-49
2024/01/04 13:51:56;;;;;;;4.10;1.20;;;;;;;9.28;69.59;97187.79;232191;197;151258;-48
2024/01/04 13:56:59;;;;;;;2.20;1.10;;;;;;;9.27;69.69;97193.73;231632;197;136954;-50
2024/01/04 14:02:03;;;;;;;3.30;1.30;;;;;;;9.23;69.73;97197.20;232251;201;137174;-45
2024/01/04 14:07:08;;;;;;;2.40;1.40;;;;;;;9.22;69.97;97197.99;232249;199;154757;-49
2024/01/04 14:12:12;;;;;;;2.60;1.30;;;;;;;9.16;70.20;97195.52;232227;196;137373;-48
2024/01/04 14:17:15;;;;;;;3.40;1.50;;;;;;;9.15;70.44;97196.84;232313;204;137923;-52
2024/01/04 14:22:18;;;;;;;3.60;1.50;;;;;;;9.19;70.61;97190.71;232226;204;150435;-49
2024/01/04 14:27:22;;;;;;;3.70;1.70;;;;;;;9.25;70.68;97189.79;231886;204;137531;-46
2024/01/04 14:32:31;;;;;;;2.20;1.70;;;;;;;9.30;70.58;97187.11;231976;204;137652;-47
2024/01/04 14:37:40;;;;;;;2.80;1.60;;;;;;;9.31;70.56;97191.61;232359;200;151315;-48
2024/01/04 14:42:44;;;;;;;3.30;1.90;;;;;;;9.34;70.60;97191.54;232244;204;136582;-47
2024/01/04 14:47:48;;;;;;;3.10;1.80;;;;;;;9.33;70.52;97193.34;232311;201;136792;-47
2024/01/04 14:52:51;;;;;;;3.80;1.80;;;;;;;9.30;70.66;97193.85;232330;204;152309;-48
2024/01/04 14:57:55;;;;;;;3.30;2.00;;;;;;;9.31;70.60;97197.48;232126;204;138159;-50
2024/01/04 15:02:58;;;;;;;3.00;1.70;;;;;;;9.36;70.59;97199.81;232164;201;137545;-49
2024/01/04 15:08:02;;;;;;;6.10;1.80;;;;;;;9.37;70.65;97202.41;232106;204;151597;-49
2024/01/04 15:13:06;;;;;;;4.00;1.90;;;;;;;9.31;70.87;97196.38;232365;204;136919;-49
2024/01/04 15:18:09;;;;;;;6.00;2.30;;;;;;;9.23;71.19;97201.30;232291;204;137725;-49
2024/01/04 15:23:15;;;;;;;4.30;2.70;;;;;;;9.23;71.45;97202.38;232217;201;151718;-48
2024/01/04 15:28:19;;;;;;;3.70;2.80;;;;;;;9.27;71.52;97204.71;231849;200;136948;-51
2024/01/04 15:33:22;;;;;;;5.30;2.70;;;;;;;9.25;71.51;97206.60;232217;204;137869;-51
2024/01/04 15:38:26;;;;;;;4.30;2.60;;;;;;;9.24;71.40;97212.91;232266;200;151897;-48
2024/01/04 15:43:30;;;;;;;5.60;3.00;;;;;;;9.33;71.24;97218.68;232332;198;137920;-51
2024/01/04 15:48:34;;;;;;;3.40;2.50;;;;;;;9.39;70.67;97226.32;232298;203;137405;-50
2024/01/04 15:53:38;;;;;;;4.30;2.90;;;;;;;9.39;70.53;97222.55;232321;200;151612;-52
2024/01/04 15:58:42;;;;;;;5.90;2.70;;;;;;;9.42;70.49;97229.23;232225;203;138767;-51
2024/01/04 16:03:45;;;;;;;4.30;2.40;;;;;;;9.42;70.11;97232.19;232300;204;137589;-51
2024/01/04 16:08:50;;;;;;;3.10;2.20;;;;;;;9.37;69.67;97230.03;232222;204;152568;-49
2024/01/04 16:13:53;;;;;;;3.60;2.00;;;;;;;9.35;69.35;97240.79;231671;201;139099;-48
2024/01/04 16:18:56;;;;;;;3.60;1.90;;;;;;;9.35;69.11;97244.83;232187;196;137789;-50
2024/01/04 16:24:00;;;;;;;3.20;1.90;;;;;;;9.45;69.13;97246.48;231718;200;151588;-50
2024/01/04 16:29:03;;;;;;;3.20;1.80;;;;;;;9.43;68.89;97246.64;232328;197;137165;-52
2024/01/04 16:34:07;;;;;;;32.60;20.70;;;;;;;9.36;69.67;97242.63;232116;203;144067;-51
2024/01/04 16:39:12;;;;;;;4.20;2.40;;;;;;;9.41;69.68;97239.39;232098;197;151860;-50
2024/01/04 16:44:16;;;;;;;4.80;1.70;;;;;;;9.38;69.41;97241.77;232048;200;137407;-51
2024/01/04 16:49:19;;;;;;;3.80;1.60;;;;;;;9.36;69.41;97238.96;232259;197;137339;-52
2024/01/04 16:54:22;;;;;;;3.00;1.90;;;;;;;9.36;69.28;97249.52;232154;204;151935;-51
2024/01/04 16:59:26;;;;;;;3.10;1.80;;;;;;;9.39;68.77;97248.42;232208;204;139835;-51
2024/01/04 17:04:29;;;;;;;4.50;2.00;;;;;;;9.36;68.15;97252.77;232247;201;136456;-51
2024/01/04 17:09:32;;;;;;;2.70;1.90;;;;;;;9.36;67.85;97257.89;232145;204;151825;-51
2024/01/04 17:14:36;;;;;;;2.90;1.60;;;;;;;9.34;67.62;97270.83;232231;203;137149;-49
2024/01/04 17:19:39;;;;;;;2.40;1.50;;;;;;;9.27;67.11;97274.96;232222;201;136581;-53
2024/01/04 17:24:42;;;;;;;2.60;1.20;;;;;;;9.25;67.08;97270.67;232185;200;151407;-50
2024/01/04 17:29:46;;;;;;;1.60;0.90;;;;;;;9.23;66.60;97274.05;232272;197;136583;-52
2024/01/04 17:34:49;;;;;;;1.00;0.70;;;;;;;9.21;66.25;97287.45;232283;203;137541;-51
2024/01/04 17:39:53;;;;;;;1.90;0.90;;;;;;;9.23;66.04;97292.62;232218;203;151781;-51
2024/01/04 17:44:56;;;;;;;1.70;1.00;;;;;;;9.27;65.70;97287.31;232219;200;139702;-52
2024/01/04 17:50:00;;;;;;;1.50;0.90;;;;;;;9.35;65.65;97284.87;232338;203;140350;-50
2024/01/04 17:55:05;;;;;;;0.90;0.80;;;;;;;9.39;65.22;97301.02;232419;197;153809;-53
2024/01/04 18:00:09;;;;;;;1.10;0.80;;;;;;;9.36;64.56;97302.64;232293;200;138112;-51
2024/01/04 18:05:12;;;;;;;2.90;0.80;;;;;;;9.30;64.43;97315.02;232112;204;137355;-50
2024/01/04 18:10:16;;;;;;;1.90;1.10;;;;;;;9.31;64.53;97325.78;232094;200;151421;-53
2024/01/04 18:15:19;;;;;;;2.60;1.50;;;;;;;9.33;65.05;97347.50;232249;204;136450;-52
2024/01/04 18:20:23;;;;;;;2.50;1.30;;;;;;;9.34;65.61;97364.05;232239;204;137967;-53
2024/01/04 18:25:26;;;;;;;3.20;1.60;;;;;;;9.33;66.16;97375.50;232327;204;151369;-53
2024/01/04 18:30:30;;;;;;;2.20;1.50;;;;;;;9.06;67.37;97400.32;232071;204;138028;-55
2024/01/04 18:35:36;;;;;;;2.60;1.20;;;;;;;8.71;68.54;97401.75;232135;197;136869;-53
2024/01/04 18:40:39;;;;;;;1.90;1.10;;;;;;;8.51;68.96;97387.35;232117;204;151552;-51
2024/01/04 18:45:43;;;;;;;2.00;1.20;;;;;;;8.34;69.16;97395.92;232152;197;137158;-54
2024/01/04 18:50:46;;;;;;;3.30;1.10;;;;;;;8.25;69.36;97405.59;232089;204;140305;-52
2024/01/04 18:55:49;;;;;;;12.60;7.30;;;;;;;8.25;69.61;97419.58;232412;204;151435;-53
2024/01/04 19:00:53;;;;;;;5.10;2.00;;;;;;;8.22;69.23;97443.63;232278;201;138509;-51
2024/01/04 19:05:57;;;;;;;2.30;1.20;;;;;;;7.93;68.07;97450.30;232285;200;137542;-51
2024/01/04 19:11:00;;;;;;;2.50;1.30;;;;;;;7.57;68.25;97454.13;232284;200;151941;-55
2024/01/04 19:16:04;;;;;;;7.90;5.40;;;;;;;7.39;68.96;97477.73;232223;204;136492;-51
2024/01/04 19:21:07;;;;;;;3.20;1.50;;;;;;;7.27;68.81;97477.70;232251;197;136846;-50
2024/01/04 19:26:11;;;;;;;2.80;1.20;;;;;;;7.15;68.76;97491.66;232316;204;151305;-48
2024/01/04 19:31:14;;;;;;;1.80;1.20;;;;;;;7.09;68.40;97507.39;232343;204;139503;-51
2024/01/04 19:36:18;;;;;;;97.20;66.10;;;;;;;7.01;68.04;97524.06;232171;197;137682;-53
2024/01/04 19:41:22;;;;;;;6.00;3.80;;;;;;;6.96;67.95;97525.45;232082;200;151594;-52
2024/01/04 19:46:25;;;;;;;2.90;1.40;;;;;;;6.82;67.35;97537.20;231809;204;137561;-52
2024/01/04 19:51:28;;;;;;;4.30;1.60;;;;;;;6.70;67.44;97545.84;232231;204;137380;-50
2024/01/04 19:56:32;;;;;;;2.30;1.30;;;;;;;6.64;67.38;97561.03;232248;197;151200;-50
2024/01/04 20:01:36;;;;;;;2.20;1.30;;;;;;;6.63;67.56;97563.06;232456;203;137622;-50
2024/01/04 20:06:40;;;;;;;3.20;1.60;;;;;;;6.64;66.75;97580.59;232263;200;137704;-50
2024/01/04 20:11:44;;;;;;;2.00;1.30;;;;;;;6.67;65.82;97586.75;232206;201;151395;-51
2024/01/04 20:16:47;;;;;;;2.80;1.30;;;;;;;6.60;64.80;97584.73;232204;200;137374;-54
2024/01/04 20:21:55;;;;;;;2.70;1.40;;;;;;;6.58;64.64;97602.34;232043;201;137247;-52
2024/01/04 20:26:58;;;;;;;2.50;1.60;;;;;;;6.47;64.74;97601.49;232376;203;152050;-55
2024/01/04 20:32:02;;;;;;;2.40;1.40;;;;;;;6.47;64.53;97615.12;231685;197;136948;-51
2024/01/04 20:37:06;;;;;;;4.20;1.70;;;;;;;6.47;64.08;97627.63;232510;200;136967;-51
2024/01/04 20:42:09;;;;;;;4.00;1.70;;;;;;;6.51;64.28;97644.77;231956;197;152001;-49
2024/01/04 20:47:14;;;;;;;2.20;1.30;;;;;;;6.51;63.62;97651.80;231892;197;137015;-52
2024/01/04 20:52:17;;;;;;;2.00;1.20;;;;;;;6.48;63.81;97653.10;232089;200;137416;-51
2024/01/04 20:57:20;;;;;;;2.60;1.60;;;;;;;6.43;63.67;97661.67;232218;201;151492;-51
2024/01/04 21:02:23;;;;;;;2.30;1.50;;;;;;;6.38;64.11;97660.96;232262;203;139955;-50
2024/01/04 21:07:29;;;;;;;3.20;1.70;;;;;;;6.36;64.03;97664.08;232374;201;137236;-50
2024/01/04 21:12:32;;;;;;;3.00;1.90;;;;;;;6.38;64.16;97676.30;232192;204;152134;-50
2024/01/04 21:17:36;;;;;;;3.40;1.90;;;;;;;6.36;64.40;97691.93;232276;197;139992;-50
2024/01/04 21:22:39;;;;;;;5.80;2.50;;;;;;;6.37;64.44;97703.14;231957;203;136862;-49
2024/01/04 21:27:42;;;;;;;3.70;2.50;;;;;;;6.38;63.93;97716.80;232276;200;152128;-49
2024/01/04 21:32:46;;;;;;;2.60;1.90;;;;;;;6.31;63.69;97720.24;232167;197;136596;-50
2024/01/04 21:37:49;;;;;;;4.60;2.00;;;;;;;6.30;62.96;97725.95;232430;204;136745;-53
2024/01/04 21:42:52;;;;;;;3.60;1.90;;;;;;;6.26;62.52;97738.89;232216;203;152286;-51
2024/01/04 21:47:55;;;;;;;3.20;1.80;;;;;;;6.11;62.40;97748.32;231975;201;137275;-48
2024/01/04 21:52:58;;;;;;;2.60;1.80;;;;;;;5.98;62.22;97766.20;232056;200;137459;-52
2024/01/04 21:58:02;;;;;;;2.50;1.40;;;;;;;5.88;62.65;97775.30;232330;203;152361;-51
2024/01/04 22:03:06;;;;;;;2.90;1.80;;;;;;;5.89;62.88;97777.31;232362;201;136096;-55
2024/01/04 22:08:09;;;;;;;2.70;1.60;;;;;;;5.86;62.03;97789.36;232219;201;136264;-49
2024/01/04 22:13:12;;;;;;;2.60;1.40;;;;;;;5.68;61.99;97792.90;232518;200;151294;-49
2024/01/04 22:18:15;;;;;;;3.00;1.40;;;;;;;5.62;61.67;97806.14;232107;201;140082;-50
2024/01/04 22:23:18;;;;;;;2.90;1.30;;;;;;;5.53;61.69;97816.75;232245;200;136300;-52
2024/01/04 22:28:22;;;;;;;2.00;1.20;;;;;;;5.41;61.72;97826.92;232126;204;151297;-52
2024/01/04 22:33:25;;;;;;;2.80;1.80;;;;;;;5.35;61.98;97829.56;232026;204;137256;-50
2024/01/04 22:38:28;;;;;;;3.80;1.70;;;;;;;5.33;62.17;97844.86;232306;201;137811;-52
2024/01/04 22:43:32;;;;;;;3.10;1.70;;;;;;;5.34;62.39;97860.45;232399;203;151790;-52
2024/01/04 22:48:35;;;;;;;4.30;1.90;;;;;;;5.36;62.53;97872.05;231812;200;136925;-53
2024/01/04 22:53:38;;;;;;;3.00;1.40;;;;;;;5.36;62.14;97882.66;232224;204;137710;-51
2024/01/04 22:58:41;;;;;;;3.60;1.70;;;;;;;5.35;61.65;97897.30;232246;204;151194;-50
2024/01/04 23:03:45;;;;;;;4.40;2.00;;;;;;;5.24;61.72;97906.40;232344;200;136419;-52
2024/01/04 23:08:49;;;;;;;3.00;1.50;;;;;;;5.16;62.03;97920.05;232082;200;140087;-51
2024/01/04 23:13:52;;;;;;;4.60;1.70;;;;;;;5.11;61.84;97929.30;232356;200;151140;-50
2024/01/04 23:18:56;;;;;;;2.70;1.40;;;;;;;5.09;62.00;97930.84;232399;197;136527;-48
2024/01/04 23:23:59;;;;;;;2.90;1.70;;;;;;;5.11;61.74;97938.99;232316;197;136776;-48
2024/01/04 23:29:03;;;;;;;2.60;1.20;;;;;;;5.02;61.84;97946.90;231608;197;152556;-49
2024/01/04 23:34:06;;;;;;;3.70;1.40;;;;;;;5.04;61.69;97959.98;232298;197;136399;-49
2024/01/04 23:39:10;;;;;;;2.80;1.60;;;;;;;5.01;61.79;97961.34;232393;204;137079;-49
2024/01/04 23:44:13;;;;;;;2.70;1.40;;;;;;;5.09;61.94;97970.75;232390;202;152048;-50
2024/01/04 23:49:16;;;;;;;3.30;1.70;;;;;;;5.10;61.92;97987.88;232432;201;137515;-51